createdAt,value
2017-06-04T00:00:43.807Z,80.68
2017-06-04T00:01:43.476Z,80.3
2017-06-04T00:02:43.776Z,80.01
2017-06-04T00:03:43.767Z,79.72
2017-06-04T00:04:43.442Z,78.77
2017-06-04T00:05:43.748Z,79.72
2017-06-04T00:06:43.433Z,79.14
2017-06-04T00:07:43.414Z,79.05
2017-06-04T00:08:43.718Z,79.14
2017-06-04T00:09:43.710Z,78.47
2017-06-04T00:10:43.701Z,78.77
2017-06-04T00:11:43.695Z,79.14
2017-06-04T00:12:43.372Z,78.47
2017-06-04T00:13:43.675Z,78.77
2017-06-04T00:14:43.351Z,78.09
2017-06-04T00:15:43.672Z,77.29
2017-06-04T00:16:43.642Z,77.42
2017-06-04T00:17:43.317Z,76.65
2017-06-04T00:18:43.624Z,77.23
2017-06-04T00:19:43.817Z,78.28
2017-06-04T00:20:43.605Z,77.9
2017-06-04T00:21:43.595Z,77.61
2017-06-04T00:22:43.587Z,78.19
2017-06-04T00:23:43.575Z,77.13
2017-06-04T00:24:43.568Z,75.79
2017-06-04T00:25:43.240Z,76.17
2017-06-04T00:26:43.230Z,76.65
2017-06-04T00:27:43.221Z,77.13
2017-06-04T00:28:43.212Z,76.07
2017-06-04T00:29:43.517Z,75.89
2017-06-04T00:30:43.510Z,77.19
2017-06-04T00:31:43.498Z,76.42
2017-06-04T00:32:43.487Z,77.29
2017-06-04T00:33:43.475Z,77.48
2017-06-04T00:34:43.153Z,77.29
2017-06-04T00:35:43.458Z,77.58
2017-06-04T00:36:43.146Z,77.38
2017-06-04T00:37:43.490Z,76.04
2017-06-04T00:38:43.428Z,76.9
2017-06-04T00:39:43.421Z,76.23
2017-06-04T00:40:43.409Z,76.14
2017-06-04T00:41:43.111Z,76.23
2017-06-04T00:42:43.440Z,77
2017-06-04T00:43:43.380Z,76.52
2017-06-04T00:44:43.369Z,76.42
2017-06-04T00:45:43.363Z,76.52
2017-06-04T00:46:43.035Z,76.42
2017-06-04T00:47:43.373Z,76.04
2017-06-04T00:48:43.331Z,77.09
2017-06-04T00:49:43.006Z,77.48
2017-06-04T00:50:43.309Z,78.82
2017-06-04T00:51:42.991Z,79.97
2017-06-04T00:52:43.289Z,79.97
2017-06-04T00:53:43.280Z,80.16
2017-06-04T00:54:42.956Z,81.51
2017-06-04T00:55:42.945Z,81.6
2017-06-04T00:56:42.935Z,83.81
2017-06-04T00:57:43.241Z,84.38
2017-06-04T00:58:43.233Z,82.46
2017-06-04T00:59:43.220Z,84.09
2017-06-04T01:00:43.215Z,84
2017-06-04T01:01:42.892Z,86.01
2017-06-04T01:02:42.877Z,84.48
2017-06-04T01:03:42.867Z,85.58
2017-06-04T01:04:43.171Z,86.35
2017-06-04T01:05:42.847Z,86.83
2017-06-04T01:06:42.837Z,88.65
2017-06-04T01:07:43.139Z,87.6
2017-06-04T01:08:42.814Z,87.12
2017-06-04T01:09:43.119Z,87.21
2017-06-04T01:10:43.111Z,86.54
2017-06-04T01:11:43.104Z,86.25
2017-06-04T01:12:43.091Z,86.35
2017-06-04T01:13:43.079Z,86.16
2017-06-04T01:14:42.760Z,84.82
2017-06-04T01:15:43.058Z,84.15
2017-06-04T01:16:43.050Z,84.34
2017-06-04T01:17:43.040Z,84.15
2017-06-04T01:18:43.029Z,84.44
2017-06-04T01:19:42.708Z,81.66
2017-06-04T01:20:42.697Z,82.71
2017-06-04T01:21:42.685Z,81.75
2017-06-04T01:22:42.990Z,80.79
2017-06-04T01:23:42.979Z,80.51
2017-06-04T01:24:42.653Z,79.26
2017-06-04T01:25:42.959Z,79.41
2017-06-04T01:26:42.950Z,79.03
2017-06-04T01:27:42.940Z,78.07
2017-06-04T01:28:42.929Z,78.64
2017-06-04T01:29:42.605Z,78.55
2017-06-04T01:30:42.917Z,79.6
2017-06-04T01:31:42.898Z,80.47
2017-06-04T01:32:42.580Z,80.27
2017-06-04T01:33:42.925Z,79.03
2017-06-04T01:34:42.863Z,78.93
2017-06-04T01:35:42.856Z,79.51
2017-06-04T01:36:42.858Z,78.07
2017-06-04T01:37:42.833Z,77.97
2017-06-04T01:38:42.839Z,78.36
2017-06-04T01:39:42.832Z,77.88
2017-06-04T01:40:42.824Z,78.36
2017-06-04T01:41:42.509Z,77.4
2017-06-04T01:42:42.474Z,77.4
2017-06-04T01:43:42.768Z,77.02
2017-06-04T01:44:42.458Z,76.06
2017-06-04T01:45:42.768Z,76.35
2017-06-04T01:46:42.742Z,76.06
2017-06-04T01:47:42.725Z,74.82
2017-06-04T01:48:42.723Z,75.29
2017-06-04T01:49:42.394Z,74.62
2017-06-04T01:50:42.696Z,73.95
2017-06-04T01:51:42.683Z,74.33
2017-06-04T01:52:42.361Z,74.52
2017-06-04T01:53:42.406Z,74.24
2017-06-04T01:54:42.654Z,74.15
2017-06-04T01:55:42.640Z,73.57
2017-06-04T01:56:42.630Z,73.66
2017-06-04T01:57:42.620Z,73.09
2017-06-04T01:58:42.296Z,73.38
2017-06-04T01:59:42.283Z,72.99
2017-06-04T02:00:42.274Z,73.09
2017-06-04T02:01:42.581Z,72.8
2017-06-04T02:02:42.567Z,72.9
2017-06-04T02:03:42.242Z,72.99
2017-06-04T02:04:42.234Z,72.42
2017-06-04T02:05:42.222Z,72.32
2017-06-04T02:06:42.213Z,72.23
2017-06-04T02:07:42.519Z,72.71
2017-06-04T02:08:42.505Z,72.61
2017-06-04T02:09:42.507Z,72.61
2017-06-04T02:10:42.483Z,72.61
2017-06-04T02:11:42.481Z,72.23
2017-06-04T02:12:42.460Z,72.23
2017-06-04T02:13:42.183Z,72.32
2017-06-04T02:14:42.437Z,72.32
2017-06-04T02:15:42.112Z,72.71
2017-06-04T02:16:42.421Z,72.99
2017-06-04T02:17:42.402Z,73.19
2017-06-04T02:18:42.392Z,74.15
2017-06-04T02:19:42.586Z,75.1
2017-06-04T02:20:42.374Z,75.39
2017-06-04T02:21:42.362Z,74.62
2017-06-04T02:22:42.352Z,75.2
2017-06-04T02:23:42.028Z,75.39
2017-06-04T02:24:42.329Z,76.54
2017-06-04T02:25:42.317Z,76.25
2017-06-04T02:26:41.992Z,76.15
2017-06-04T02:27:42.296Z,76.35
2017-06-04T02:28:41.971Z,77.02
2017-06-04T02:29:42.276Z,77.5
2017-06-04T02:30:41.951Z,78.07
2017-06-04T02:31:42.259Z,78.07
2017-06-04T02:32:41.931Z,77.5
2017-06-04T02:33:41.916Z,78.55
2017-06-04T02:34:42.222Z,77.59
2017-06-04T02:35:42.210Z,77.97
2017-06-04T02:36:41.889Z,77.97
2017-06-04T02:37:42.189Z,78.93
2017-06-04T02:38:42.178Z,79.03
2017-06-04T02:39:41.853Z,79.32
2017-06-04T02:40:42.164Z,79.51
2017-06-04T02:41:42.148Z,79.41
2017-06-04T02:42:42.139Z,79.6
2017-06-04T02:43:41.813Z,79.03
2017-06-04T02:44:41.803Z,78.55
2017-06-04T02:45:41.792Z,78.74
2017-06-04T02:46:42.100Z,78.74
2017-06-04T02:47:41.774Z,78.64
2017-06-04T02:48:41.760Z,78.55
2017-06-04T02:49:42.061Z,78.64
2017-06-04T02:50:42.050Z,78.36
2017-06-04T02:51:41.734Z,78.36
2017-06-04T02:52:41.719Z,77.59
2017-06-04T02:53:42.023Z,77.97
2017-06-04T02:54:41.701Z,78.36
2017-06-04T02:55:41.997Z,77.31
2017-06-04T02:56:41.673Z,77.78
2017-06-04T02:57:41.976Z,78.07
2017-06-04T02:58:41.967Z,78.55
2017-06-04T02:59:41.961Z,78.64
2017-06-04T03:00:41.946Z,78.27
2017-06-04T03:01:41.936Z,78.45
2017-06-04T03:02:41.610Z,78.55
2017-06-04T03:03:41.912Z,78.93
2017-06-04T03:04:41.588Z,79.22
2017-06-04T03:05:41.577Z,79.22
2017-06-04T03:06:41.568Z,79.99
2017-06-04T03:07:41.871Z,79.85
2017-06-04T03:08:41.860Z,79.85
2017-06-04T03:09:41.851Z,80.18
2017-06-04T03:10:41.842Z,80.27
2017-06-04T03:11:41.829Z,80.62
2017-06-04T03:12:41.501Z,79.66
2017-06-04T03:13:41.495Z,79.85
2017-06-04T03:14:41.486Z,79.47
2017-06-04T03:15:41.787Z,80.37
2017-06-04T03:16:41.460Z,80.33
2017-06-04T03:17:41.450Z,80.62
2017-06-04T03:18:41.437Z,80.71
2017-06-04T03:19:41.427Z,81
2017-06-04T03:20:41.420Z,81.2
2017-06-04T03:21:41.413Z,80.43
2017-06-04T03:22:41.398Z,80.9
2017-06-04T03:23:41.700Z,80.81
2017-06-04T03:24:41.381Z,81.86
2017-06-04T03:25:41.680Z,82.43
2017-06-04T03:26:41.354Z,82.24
2017-06-04T03:27:41.352Z,82.43
2017-06-04T03:28:41.332Z,81.77
2017-06-04T03:29:41.688Z,81.96
2017-06-04T03:30:41.627Z,81.38
2017-06-04T03:31:41.304Z,81.57
2017-06-04T03:32:41.604Z,80.81
2017-06-04T03:33:41.308Z,80.71
2017-06-04T03:34:41.583Z,80.52
2017-06-04T03:35:41.574Z,80.14
2017-06-04T03:36:41.565Z,79.95
2017-06-04T03:37:41.237Z,80.24
2017-06-04T03:38:41.539Z,79.47
2017-06-04T03:39:41.586Z,78.89
2017-06-04T03:40:41.520Z,79.28
2017-06-04T03:41:41.198Z,79.47
2017-06-04T03:42:41.501Z,79.28
2017-06-04T03:43:41.486Z,79.47
2017-06-04T03:44:41.476Z,79.95
2017-06-04T03:45:41.467Z,79.85
2017-06-04T03:46:41.457Z,80.52
2017-06-04T03:47:41.447Z,80.62
2017-06-04T03:48:41.433Z,80.71
2017-06-04T03:49:41.109Z,80.62
2017-06-04T03:50:41.414Z,80.33
2017-06-04T03:51:41.402Z,80.33
2017-06-04T03:52:41.393Z,80.14
2017-06-04T03:53:41.067Z,80.52
2017-06-04T03:54:41.055Z,80.14
2017-06-04T03:55:41.361Z,80.14
2017-06-04T03:56:41.033Z,80.14
2017-06-04T03:57:41.339Z,80.43
2017-06-04T03:58:41.015Z,80.14
2017-06-04T03:59:41.319Z,79.75
2017-06-04T04:00:41.305Z,79.95
2017-06-04T04:01:41.293Z,79.47
2017-06-04T04:02:41.287Z,79.18
2017-06-04T04:03:41.271Z,79.57
2017-06-04T04:04:41.261Z,78.7
2017-06-04T04:05:41.253Z,78.03
2017-06-04T04:06:41.249Z,78.32
2017-06-04T04:07:41.229Z,78.51
2017-06-04T04:08:41.218Z,78.7
2017-06-04T04:09:40.892Z,78.7
2017-06-04T04:10:41.207Z,78.89
2017-06-04T04:11:41.185Z,78.51
2017-06-04T04:12:41.177Z,79.28
2017-06-04T04:13:40.851Z,78.89
2017-06-04T04:14:41.155Z,79.18
2017-06-04T04:15:41.143Z,79.08
2017-06-04T04:16:41.137Z,79.08
2017-06-04T04:17:40.807Z,78.99
2017-06-04T04:18:41.111Z,79.47
2017-06-04T04:19:41.303Z,79.37
2017-06-04T04:20:41.087Z,79.57
2017-06-04T04:21:41.077Z,79.28
2017-06-04T04:22:41.067Z,79.28
2017-06-04T04:23:41.059Z,79.28
2017-06-04T04:24:41.048Z,79.28
2017-06-04T04:25:41.037Z,79.08
2017-06-04T04:26:41.021Z,78.8
2017-06-04T04:27:41.016Z,78.7
2017-06-04T04:28:41.002Z,78.7
2017-06-04T04:29:41.021Z,79.08
2017-06-04T04:30:40.986Z,79.08
2017-06-04T04:31:40.661Z,78.42
2017-06-04T04:32:40.966Z,78.42
2017-06-04T04:33:40.690Z,78.51
2017-06-04T04:34:40.683Z,78.61
2017-06-04T04:35:40.625Z,78.89
2017-06-04T04:36:40.625Z,78.8
2017-06-04T04:37:40.911Z,78.8
2017-06-04T04:38:40.600Z,78.32
2017-06-04T04:39:40.886Z,78.51
2017-06-04T04:40:40.591Z,78.42
2017-06-04T04:41:40.872Z,78.42
2017-06-04T04:42:40.854Z,78.51
2017-06-04T04:43:40.844Z,78.61
2017-06-04T04:44:40.831Z,78.32
2017-06-04T04:45:40.823Z,78.42
2017-06-04T04:46:40.497Z,78.42
2017-06-04T04:47:40.802Z,78.32
2017-06-04T04:48:40.787Z,78.42
2017-06-04T04:49:40.781Z,78.51
2017-06-04T04:50:40.452Z,78.51
2017-06-04T04:51:40.759Z,78.51
2017-06-04T04:52:40.435Z,78.51
2017-06-04T04:53:40.421Z,79.28
2017-06-04T04:54:40.724Z,78.89
2017-06-04T04:55:40.715Z,78.99
2017-06-04T04:56:40.703Z,79.08
2017-06-04T04:57:40.696Z,79.37
2017-06-04T04:58:40.687Z,79.75
2017-06-04T04:59:40.359Z,79.47
2017-06-04T05:00:40.717Z,79.28
2017-06-04T05:01:40.336Z,79.66
2017-06-04T05:02:40.327Z,80.04
2017-06-04T05:03:40.632Z,80.81
2017-06-04T05:04:40.629Z,81.2
2017-06-04T05:05:40.625Z,81.57
2017-06-04T05:06:40.283Z,81.67
2017-06-04T05:07:40.273Z,81.77
2017-06-04T05:08:40.594Z,81.86
2017-06-04T05:09:40.594Z,81.77
2017-06-04T05:10:40.571Z,81.2
2017-06-04T05:11:40.233Z,80.62
2017-06-04T05:12:40.531Z,80.66
2017-06-04T05:13:40.522Z,80.76
2017-06-04T05:14:40.515Z,79.99
2017-06-04T05:15:40.193Z,80.56
2017-06-04T05:16:40.488Z,81.43
2017-06-04T05:17:40.167Z,81.62
2017-06-04T05:18:40.469Z,81.81
2017-06-04T05:19:40.456Z,83.05
2017-06-04T05:20:40.449Z,83.01
2017-06-04T05:21:40.123Z,82.57
2017-06-04T05:22:40.428Z,83.44
2017-06-04T05:23:40.103Z,82.29
2017-06-04T05:24:40.406Z,82.86
2017-06-04T05:25:40.396Z,83.25
2017-06-04T05:26:40.070Z,82.09
2017-06-04T05:27:40.374Z,82.19
2017-06-04T05:28:40.370Z,81.23
2017-06-04T05:29:40.357Z,81.23
2017-06-04T05:30:40.345Z,81.23
2017-06-04T05:31:40.333Z,80.56
2017-06-04T05:32:40.324Z,80.18
2017-06-04T05:33:40.313Z,80.08
2017-06-04T05:34:40.312Z,79.8
2017-06-04T05:35:39.978Z,79.6
2017-06-04T05:36:40.280Z,79.89
2017-06-04T05:37:39.956Z,79.41
2017-06-04T05:38:40.259Z,78.45
2017-06-04T05:39:39.936Z,80.18
2017-06-04T05:40:40.254Z,80.18
2017-06-04T05:41:39.914Z,79.36
2017-06-04T05:42:40.219Z,79.6
2017-06-04T05:43:40.210Z,80.89
2017-06-04T05:44:39.883Z,80.27
2017-06-04T05:45:39.874Z,80.76
2017-06-04T05:46:39.863Z,80.7
2017-06-04T05:47:39.853Z,80.08
2017-06-04T05:48:40.154Z,80.99
2017-06-04T05:49:39.832Z,80.7
2017-06-04T05:50:40.138Z,80.12
2017-06-04T05:51:39.822Z,80.41
2017-06-04T05:52:40.125Z,80.51
2017-06-04T05:53:39.796Z,80.7
2017-06-04T05:54:40.103Z,80.41
2017-06-04T05:55:40.087Z,80.89
2017-06-04T05:56:40.075Z,81.75
2017-06-04T05:57:39.753Z,81.56
2017-06-04T05:58:40.064Z,80.79
2017-06-04T05:59:40.049Z,80.22
2017-06-04T06:00:40.047Z,81.37
2017-06-04T06:01:40.059Z,81.75
2017-06-04T06:02:39.703Z,82.04
2017-06-04T06:03:40.008Z,81.08
2017-06-04T06:04:39.683Z,81.75
2017-06-04T06:05:39.986Z,81.66
2017-06-04T06:06:39.663Z,83.38
2017-06-04T06:07:39.652Z,81.95
2017-06-04T06:08:39.957Z,83.09
2017-06-04T06:09:39.637Z,85.58
2017-06-04T06:10:39.625Z,86.83
2017-06-04T06:11:39.928Z,85.58
2017-06-04T06:12:39.918Z,86.35
2017-06-04T06:13:39.597Z,85.3
2017-06-04T06:14:39.899Z,84.72
2017-06-04T06:15:39.579Z,85.01
2017-06-04T06:16:39.880Z,85.11
2017-06-04T06:17:39.868Z,86.07
2017-06-04T06:18:39.859Z,88.37
2017-06-04T06:19:40.263Z,89.9
2017-06-04T06:20:39.530Z,91.53
2017-06-04T06:21:39.826Z,86.54
2017-06-04T06:22:39.820Z,88.08
2017-06-04T06:23:39.495Z,88.37
2017-06-04T06:24:39.832Z,88.56
2017-06-04T06:25:39.809Z,89.42
2017-06-04T06:26:39.777Z,87.5
2017-06-04T06:27:39.458Z,88.37
2017-06-04T06:28:39.766Z,87.21
2017-06-04T06:29:39.751Z,89.04
2017-06-04T06:30:39.744Z,89.8
2017-06-04T06:31:39.741Z,88.7
2017-06-04T06:32:39.718Z,90.04
2017-06-04T06:33:39.715Z,90.23
2017-06-04T06:34:39.727Z,90.33
2017-06-04T06:35:39.695Z,88.89
2017-06-04T06:36:39.374Z,90.61
2017-06-04T06:37:39.677Z,91.28
2017-06-04T06:38:39.667Z,91.19
2017-06-04T06:39:39.657Z,93.11
2017-06-04T06:40:39.338Z,92.34
2017-06-04T06:41:39.323Z,90.71
2017-06-04T06:42:39.317Z,90.52
2017-06-04T06:43:39.617Z,92.34
2017-06-04T06:44:39.608Z,95.41
2017-06-04T06:45:39.285Z,95.98
2017-06-04T06:46:39.589Z,94.64
2017-06-04T06:47:39.269Z,93.49
2017-06-04T06:48:39.258Z,93.01
2017-06-04T06:49:39.575Z,93.21
2017-06-04T06:50:39.237Z,95.17
2017-06-04T06:51:39.549Z,96.61
2017-06-04T06:52:39.533Z,96.7
2017-06-04T06:53:39.218Z,97.86
2017-06-04T06:54:39.206Z,97.56
2017-06-04T06:55:39.505Z,96.42
2017-06-04T06:56:39.500Z,98.05
2017-06-04T06:57:39.173Z,98.91
2017-06-04T06:58:39.367Z,99.99
2017-06-04T06:59:39.155Z,98.72
2017-06-04T07:00:39.462Z,99.99
2017-06-04T07:01:39.452Z,99.99
2017-06-04T07:02:39.454Z,99.99
2017-06-04T07:03:39.440Z,99.99
2017-06-04T07:04:39.427Z,99.99
2017-06-04T07:05:39.417Z,99.99
2017-06-04T07:06:39.410Z,99.99
2017-06-04T07:07:39.398Z,99.99
2017-06-04T07:08:39.394Z,99.99
2017-06-04T07:09:39.379Z,99.99
2017-06-04T07:10:39.374Z,99.99
2017-06-04T07:11:39.366Z,99.99
2017-06-04T07:12:39.357Z,99.99
2017-06-04T07:13:39.037Z,99.99
2017-06-04T07:14:39.337Z,99.99
2017-06-04T07:15:39.016Z,99.99
2017-06-04T07:16:39.010Z,99.99
2017-06-04T07:17:39.311Z,99.99
2017-06-04T07:18:39.307Z,99.99
2017-06-04T07:19:39.295Z,99.99
2017-06-04T07:20:39.288Z,99.99
2017-06-04T07:21:39.280Z,99.99
2017-06-04T07:22:39.271Z,99.99
2017-06-04T07:23:38.977Z,99.99
2017-06-04T07:24:39.255Z,99.99
2017-06-04T07:25:39.247Z,99.99
2017-06-04T07:26:38.934Z,99.99
2017-06-04T07:27:39.227Z,99.99
2017-06-04T07:28:38.906Z,99.99
2017-06-04T07:29:38.900Z,99.99
2017-06-04T07:30:38.891Z,99.99
2017-06-04T07:31:39.196Z,99.99
2017-06-04T07:32:38.882Z,99.99
2017-06-04T07:33:39.184Z,99.99
2017-06-04T07:34:38.870Z,99.99
2017-06-04T07:35:38.859Z,99.99
2017-06-04T07:36:39.167Z,99.99
2017-06-04T07:37:39.153Z,99.99
2017-06-04T07:38:38.832Z,99.99
2017-06-04T07:39:39.137Z,99.99
2017-06-04T07:40:39.131Z,99.99
2017-06-04T07:41:38.807Z,99.99
2017-06-04T07:42:38.802Z,99.99
2017-06-04T07:43:39.112Z,99.99
2017-06-04T07:44:39.105Z,99.99
2017-06-04T07:45:39.094Z,99.99
2017-06-04T07:46:38.776Z,99.99
2017-06-04T07:47:38.772Z,99.99
2017-06-04T07:48:38.762Z,99.99
2017-06-04T07:49:39.074Z,99.99
2017-06-04T07:50:39.064Z,99.99
2017-06-04T07:51:38.746Z,99.99
2017-06-04T07:52:39.059Z,99.99
2017-06-04T07:53:38.735Z,99.99
2017-06-04T07:54:38.728Z,99.99
2017-06-04T07:55:38.723Z,99.99
2017-06-04T07:56:39.028Z,99.99
2017-06-04T07:57:38.708Z,99.99
2017-06-04T07:58:38.705Z,99.99
2017-06-04T07:59:38.697Z,99.99
2017-06-04T08:00:38.696Z,99.99
2017-06-04T08:01:39.002Z,99.99
2017-06-04T08:02:38.680Z,99.99
2017-06-04T08:03:38.674Z,99.99
2017-06-04T08:04:38.671Z,99.99
2017-06-04T08:05:38.978Z,99.99
2017-06-04T08:06:38.662Z,99.99
2017-06-04T08:07:38.968Z,99.99
2017-06-04T08:08:38.647Z,99.99
2017-06-04T08:09:38.644Z,99.99
2017-06-04T08:10:38.950Z,99.99
2017-06-04T08:11:38.951Z,99.99
2017-06-04T08:12:38.941Z,99.99
2017-06-04T08:13:38.939Z,99.99
2017-06-04T08:14:38.932Z,99.99
2017-06-04T08:15:38.608Z,99.99
2017-06-04T08:16:38.916Z,99.99
2017-06-04T08:17:38.910Z,99.99
2017-06-04T08:18:38.902Z,99.99
2017-06-04T08:19:38.588Z,99.11
2017-06-04T08:20:38.895Z,96.99
2017-06-04T08:21:38.892Z,99.89
2017-06-04T08:22:38.889Z,98.88
2017-06-04T08:23:38.570Z,94.96
2017-06-04T08:24:38.881Z,94.72
2017-06-04T08:25:38.873Z,96.8
2017-06-04T08:26:38.573Z,98.88
2017-06-04T08:27:38.910Z,96.94
2017-06-04T08:28:38.868Z,94.91
2017-06-04T08:29:38.861Z,89.39
2017-06-04T08:30:38.872Z,84.66
2017-06-04T08:31:38.540Z,81.79
2017-06-04T08:32:38.878Z,82.51
2017-06-04T08:33:38.848Z,80.13
2017-06-04T08:34:38.533Z,76.29
2017-06-04T08:35:38.846Z,76.97
2017-06-04T08:36:38.529Z,76.04
2017-06-04T08:37:38.849Z,76.78
2017-06-04T08:38:38.523Z,80.19
2017-06-04T08:39:38.838Z,82.95
2017-06-04T08:40:38.531Z,81.17
2017-06-04T08:41:38.842Z,83.36
2017-06-04T08:42:38.832Z,88.29
2017-06-04T08:43:38.828Z,88.64
2017-06-04T08:44:38.836Z,91.63
2017-06-04T08:45:38.509Z,96.75
2017-06-04T08:46:38.506Z,90.13
2017-06-04T08:47:38.503Z,88.29
2017-06-04T08:48:38.836Z,89.94
2017-06-04T08:49:38.503Z,89.65
2017-06-04T08:50:38.498Z,86.27
2017-06-04T08:51:38.824Z,88.39
2017-06-04T08:52:38.807Z,87.08
2017-06-04T08:53:38.806Z,88.82
2017-06-04T08:54:38.801Z,97.24
2017-06-04T08:55:38.800Z,99.4
2017-06-04T08:56:38.482Z,98.63
2017-06-04T08:57:38.478Z,99.6
2017-06-04T08:58:38.471Z,98.78
2017-06-04T08:59:38.783Z,98.49
2017-06-04T09:00:38.785Z,98
2017-06-04T09:01:38.798Z,99.11
2017-06-04T09:02:38.459Z,98.73
2017-06-04T09:03:38.454Z,99.99
2017-06-04T09:04:38.472Z,99.99
2017-06-04T09:05:38.445Z,99.99
2017-06-04T09:06:38.755Z,99.99
2017-06-04T09:07:38.751Z,99.99
2017-06-04T09:08:38.748Z,99.99
2017-06-04T09:09:38.770Z,99.99
2017-06-04T09:10:38.740Z,99.99
2017-06-04T09:11:38.748Z,99.99
2017-06-04T09:12:38.730Z,99.99
2017-06-04T09:13:38.728Z,99.99
2017-06-04T09:14:38.724Z,99.99
2017-06-04T09:15:38.409Z,99.99
2017-06-04T09:16:38.721Z,99.99
2017-06-04T09:17:38.712Z,99.99
2017-06-04T09:18:38.711Z,99.99
2017-06-04T09:19:38.719Z,99.99
2017-06-04T09:20:38.696Z,99.99
2017-06-04T09:21:38.695Z,91.54
2017-06-04T09:22:38.696Z,87.29
2017-06-04T09:23:38.685Z,85.98
2017-06-04T09:24:38.369Z,87.27
2017-06-04T09:25:38.366Z,88.1
2017-06-04T09:26:38.382Z,82.2
2017-06-04T09:27:38.722Z,80.71
2017-06-04T09:28:38.697Z,80.84
2017-06-04T09:29:38.372Z,78.08
2017-06-04T09:30:38.671Z,77.11
2017-06-04T09:31:38.686Z,77.2
2017-06-04T09:32:38.357Z,77.53
2017-06-04T09:33:38.873Z,81.65
2017-06-04T09:34:38.673Z,82.83
2017-06-04T09:35:38.658Z,79.35
2017-06-04T09:36:38.677Z,79.78
2017-06-04T09:37:38.672Z,80.98
2017-06-04T09:38:38.653Z,82.43
2017-06-04T09:39:38.337Z,85.29
2017-06-04T09:40:38.342Z,83.99
2017-06-04T09:41:38.644Z,82.5
2017-06-04T09:42:38.649Z,85.4
2017-06-04T09:43:38.646Z,82.56
2017-06-04T09:44:38.643Z,88.2
2017-06-04T09:45:38.331Z,90.61
2017-06-04T09:46:38.640Z,88.49
2017-06-04T09:47:38.664Z,86.07
2017-06-04T09:48:38.344Z,85.05
2017-06-04T09:49:38.318Z,84.47
2017-06-04T09:50:38.648Z,85.4
2017-06-04T09:51:38.642Z,86.8
2017-06-04T09:52:38.632Z,90.19
2017-06-04T09:53:38.635Z,93.08
2017-06-04T09:54:38.629Z,95.21
2017-06-04T09:55:38.639Z,94.87
2017-06-04T09:56:38.303Z,93.33
2017-06-04T09:57:38.618Z,93.13
2017-06-04T09:58:38.623Z,96.22
2017-06-04T09:59:38.304Z,99.99
2017-06-04T10:00:38.613Z,97.81
2017-06-04T10:01:38.623Z,97.24
2017-06-04T10:02:38.624Z,99.69
2017-06-04T10:03:38.287Z,99.99
2017-06-04T10:04:38.591Z,97.96
2017-06-04T10:05:38.279Z,94.24
2017-06-04T10:06:38.290Z,95.21
2017-06-04T10:07:38.586Z,94.15
2017-06-04T10:08:38.576Z,91.74
2017-06-04T10:09:38.584Z,87
2017-06-04T10:10:38.585Z,83.66
2017-06-04T10:11:38.269Z,80.41
2017-06-04T10:12:38.255Z,80.94
2017-06-04T10:13:38.597Z,79.24
2017-06-04T10:14:38.571Z,82.04
2017-06-04T10:15:38.561Z,78.25
2017-06-04T10:16:38.588Z,73.15
2017-06-04T10:17:38.255Z,69.6
2017-06-04T10:18:38.565Z,70.21
2017-06-04T10:19:38.570Z,70.41
2017-06-04T10:20:38.563Z,70.93
2017-06-04T10:21:38.560Z,69.28
2017-06-04T10:22:38.259Z,67.99
2017-06-04T10:23:38.555Z,69.7
2017-06-04T10:24:38.569Z,69.92
2017-06-04T10:25:38.566Z,71.24
2017-06-04T10:26:38.238Z,74.79
2017-06-04T10:27:38.553Z,75.91
2017-06-04T10:28:38.570Z,77.42
2017-06-04T10:29:38.554Z,78.54
2017-06-04T10:30:38.570Z,79.27
2017-06-04T10:31:38.238Z,78.11
2017-06-04T10:32:38.553Z,78.36
2017-06-04T10:33:38.560Z,79.19
2017-06-04T10:34:38.232Z,78.58
2017-06-04T10:35:38.547Z,80.12
2017-06-04T10:36:38.244Z,80.76
2017-06-04T10:37:38.542Z,85.38
2017-06-04T10:38:38.549Z,84.99
2017-06-04T10:39:38.260Z,84.52
2017-06-04T10:40:38.540Z,86.82
2017-06-04T10:41:38.537Z,92.18
2017-06-04T10:42:38.533Z,90.64
2017-06-04T10:43:38.535Z,92.18
2017-06-04T10:44:38.534Z,92.76
2017-06-04T10:45:38.529Z,94.78
2017-06-04T10:46:38.506Z,94.1
2017-06-04T10:47:38.509Z,93.62
2017-06-04T10:48:38.246Z,93.81
2017-06-04T10:49:38.194Z,87.5
2017-06-04T10:50:38.190Z,84.11
2017-06-04T10:51:38.494Z,79.08
2017-06-04T10:52:38.182Z,79.31
2017-06-04T10:53:38.477Z,78.19
2017-06-04T10:54:38.476Z,77.9
2017-06-04T10:55:38.472Z,77.22
2017-06-04T10:56:38.153Z,75.64
2017-06-04T10:57:38.150Z,76.1
2017-06-04T10:58:38.462Z,76.53
2017-06-04T10:59:38.146Z,74.79
2017-06-04T11:00:38.456Z,74.27
2017-06-04T11:01:38.160Z,75.81
2017-06-04T11:02:38.461Z,75.65
2017-06-04T11:03:38.138Z,70.82
2017-06-04T11:04:38.450Z,71.94
2017-06-04T11:05:38.455Z,73.55
2017-06-04T11:06:38.448Z,73.9
2017-06-04T11:07:38.127Z,74.35
2017-06-04T11:08:38.440Z,76.15
2017-06-04T11:09:38.437Z,75.37
2017-06-04T11:10:38.437Z,77.94
2017-06-04T11:11:38.118Z,78.77
2017-06-04T11:12:38.445Z,79.83
2017-06-04T11:13:38.112Z,83.11
2017-06-04T11:14:38.424Z,82.43
2017-06-04T11:15:38.419Z,84.42
2017-06-04T11:16:38.419Z,85.86
2017-06-04T11:17:38.097Z,88.17
2017-06-04T11:18:38.410Z,87.4
2017-06-04T11:19:38.405Z,85.67
2017-06-04T11:20:38.400Z,87.65
2017-06-04T11:21:38.080Z,93.43
2017-06-04T11:22:38.076Z,92.47
2017-06-04T11:23:38.385Z,92.71
2017-06-04T11:24:38.071Z,95.79
2017-06-04T11:25:38.378Z,97.42
2017-06-04T11:26:38.058Z,97.81
2017-06-04T11:27:38.367Z,96.27
2017-06-04T11:28:38.360Z,96.89
2017-06-04T11:29:38.358Z,98.24
2017-06-04T11:30:38.037Z,99.78
2017-06-04T11:31:38.346Z,94.87
2017-06-04T11:32:38.343Z,92.38
2017-06-04T11:33:38.021Z,91.7
2017-06-04T11:34:38.358Z,93.15
2017-06-04T11:35:38.013Z,94.1
2017-06-04T11:36:38.316Z,97.33
2017-06-04T11:37:38.313Z,99.35
2017-06-04T11:38:38.308Z,97.62
2017-06-04T11:39:38.301Z,97.71
2017-06-04T11:40:38.310Z,99.4
2017-06-04T11:41:38.292Z,99.64
2017-06-04T11:42:38.286Z,99.99
2017-06-04T11:43:38.280Z,99.99
2017-06-04T11:44:38.268Z,99.99
2017-06-04T11:45:38.265Z,99.99
2017-06-04T11:46:38.255Z,99.99
2017-06-04T11:47:38.246Z,99.99
2017-06-04T11:48:38.242Z,99.99
2017-06-04T11:49:37.919Z,99.99
2017-06-04T11:50:38.234Z,99.99
2017-06-04T11:51:37.904Z,99.69
2017-06-04T11:52:38.212Z,98.92
2017-06-04T11:53:38.205Z,97.09
2017-06-04T11:54:38.202Z,92.94
2017-06-04T11:55:38.197Z,93.28
2017-06-04T11:56:37.880Z,85.85
2017-06-04T11:57:38.183Z,78.85
2017-06-04T11:58:38.181Z,78.44
2017-06-04T11:59:37.865Z,78.06
2017-06-04T12:00:38.174Z,75.87
2017-06-04T12:01:37.853Z,75
2017-06-04T12:02:37.850Z,73.01
2017-06-04T12:03:37.845Z,73.01
2017-06-04T12:04:37.847Z,72.75
2017-06-04T12:05:37.840Z,73.72
2017-06-04T12:06:37.841Z,75.27
2017-06-04T12:07:37.835Z,75.34
2017-06-04T12:08:38.155Z,74.12
2017-06-04T12:09:38.149Z,70.21
2017-06-04T12:10:38.148Z,67.79
2017-06-04T12:11:38.147Z,66.37
2017-06-04T12:12:38.144Z,64.95
2017-06-04T12:13:38.148Z,62.74
2017-06-04T12:14:37.839Z,62.91
2017-06-04T12:15:37.834Z,62.16
2017-06-04T12:16:38.148Z,62.52
2017-06-04T12:17:38.159Z,65.05
2017-06-04T12:18:37.834Z,64.85
2017-06-04T12:19:37.837Z,62.62
2017-06-04T12:20:38.038Z,64.75
2017-06-04T12:21:38.155Z,63.98
2017-06-04T12:22:38.157Z,63.13
2017-06-04T12:23:38.159Z,64.14
2017-06-04T12:24:37.845Z,62.61
2017-06-04T12:25:38.163Z,59.79
2017-06-04T12:26:38.172Z,64.14
2017-06-04T12:27:38.167Z,64.26
2017-06-04T12:28:37.857Z,59.43
2017-06-04T12:29:37.856Z,59.82
2017-06-04T12:30:38.172Z,61.61
2017-06-04T12:31:38.173Z,64.49
2017-06-04T12:32:37.862Z,62.84
2017-06-04T12:33:37.868Z,64.26
2017-06-04T12:34:37.865Z,65.11
2017-06-04T12:35:37.880Z,63.95
2017-06-04T12:36:38.181Z,64.78
2017-06-04T12:37:37.876Z,68.02
2017-06-04T12:38:38.188Z,67.6
2017-06-04T12:39:38.240Z,65.66
2017-06-04T12:40:38.187Z,69.02
2017-06-04T12:41:38.188Z,69.76
2017-06-04T12:42:37.878Z,70.15
2017-06-04T12:43:37.881Z,69.53
2017-06-04T12:44:37.880Z,68.53
2017-06-04T12:45:37.872Z,70.43
2017-06-04T12:46:37.877Z,70.1
2017-06-04T12:47:38.183Z,71.56
2017-06-04T12:48:38.180Z,70.17
2017-06-04T12:49:38.185Z,68.59
2017-06-04T12:50:38.182Z,68.4
2017-06-04T12:51:37.863Z,70.14
2017-06-04T12:52:38.178Z,70.87
2017-06-04T12:53:38.180Z,68.94
2017-06-04T12:54:37.857Z,72.09
2017-06-04T12:55:37.855Z,71.61